createdAt,value
2018-07-21T00:01:11.246Z,1.92
2018-07-21T00:03:39.405Z,1.67
2018-07-21T00:06:07.548Z,1.67
2018-07-21T00:08:35.713Z,1.95
2018-07-21T00:11:03.960Z,1.27
2018-07-21T00:13:32.263Z,2.05
2018-07-21T00:16:00.580Z,1.50
2018-07-21T00:18:28.690Z,1.90
2018-07-21T00:20:56.830Z,1.80
2018-07-21T00:23:24.989Z,1.77
2018-07-21T00:25:53.141Z,1.60
2018-07-21T00:28:21.306Z,1.80
2018-07-21T00:30:49.496Z,1.90
2018-07-21T00:33:17.631Z,2.00
2018-07-21T00:35:45.804Z,2.02
2018-07-21T00:38:14.021Z,1.60
2018-07-21T00:40:42.164Z,1.98
2018-07-21T00:43:10.301Z,2.47
2018-07-21T00:45:38.525Z,2.05
2018-07-21T00:48:06.800Z,2.25
2018-07-21T00:50:34.957Z,2.52
2018-07-21T00:53:03.132Z,2.00
2018-07-21T00:55:31.270Z,2.12
2018-07-21T00:57:59.430Z,2.60
2018-07-21T01:00:27.643Z,1.85
2018-07-21T01:02:55.797Z,2.60
2018-07-21T01:05:23.923Z,2.08
2018-07-21T01:07:52.165Z,1.52
2018-07-21T01:10:20.458Z,1.80
2018-07-21T01:12:48.611Z,2.10
2018-07-21T01:15:16.866Z,1.70
2018-07-21T01:17:45.116Z,1.70
2018-07-21T01:20:13.334Z,2.10
2018-07-21T01:22:41.613Z,1.72
2018-07-21T01:25:09.857Z,1.67
2018-07-21T01:27:38.066Z,2.37
2018-07-21T01:30:06.781Z,2.62
2018-07-21T01:32:34.917Z,2.02
2018-07-21T01:35:03.089Z,1.98
2018-07-21T01:37:31.332Z,2.02
2018-07-21T01:39:59.507Z,1.57
2018-07-21T01:42:27.631Z,2.17
2018-07-21T01:44:55.873Z,1.92
2018-07-21T01:47:24.119Z,1.85
2018-07-21T01:49:52.380Z,1.80
2018-07-21T01:52:20.860Z,1.82
2018-07-21T01:54:49.051Z,1.95
2018-07-21T01:57:17.279Z,2.05
2018-07-21T01:59:45.469Z,1.90
2018-07-21T02:02:13.643Z,1.87
2018-07-21T02:04:41.860Z,2.15
2018-07-21T02:07:10.108Z,3.05
2018-07-21T02:09:38.359Z,1.95
2018-07-21T02:12:06.764Z,2.37
2018-07-21T02:14:35.011Z,1.65
2018-07-21T02:17:03.298Z,2.25
2018-07-21T02:19:31.502Z,1.90
2018-07-21T02:21:59.847Z,2.00
2018-07-21T02:24:28.007Z,1.92
2018-07-21T02:26:56.145Z,2.05
2018-07-21T02:29:24.343Z,1.70
2018-07-21T02:31:52.574Z,2.10
2018-07-21T02:34:20.876Z,1.92
2018-07-21T02:36:49.077Z,1.80
2018-07-21T02:39:17.238Z,3.40
2018-07-21T02:41:45.505Z,1.77
2018-07-21T02:44:13.827Z,1.50
2018-07-21T02:46:41.980Z,1.75
2018-07-21T02:49:10.137Z,1.80
2018-07-21T02:51:38.337Z,1.80
2018-07-21T02:54:06.484Z,1.77
2018-07-21T02:56:34.638Z,1.70
2018-07-21T02:59:02.803Z,2.00
2018-07-21T03:01:30.956Z,1.80
2018-07-21T03:03:59.108Z,1.70
2018-07-21T03:06:27.262Z,1.70
2018-07-21T03:08:55.399Z,2.42
2018-07-21T03:11:23.549Z,1.75
2018-07-21T03:13:51.772Z,1.77
2018-07-21T03:16:19.988Z,2.02
2018-07-21T03:18:48.116Z,1.75
2018-07-21T03:21:16.298Z,1.87
2018-07-21T03:23:44.740Z,1.90
2018-07-21T03:26:13.055Z,2.00
2018-07-21T03:28:41.190Z,2.20
2018-07-21T03:31:09.527Z,1.60
2018-07-21T03:33:37.720Z,1.87
2018-07-21T03:36:05.973Z,1.57
2018-07-21T03:38:34.176Z,1.57
2018-07-21T03:41:02.381Z,2.10
2018-07-21T03:43:30.498Z,1.80
2018-07-21T03:45:58.696Z,1.72
2018-07-21T03:48:26.832Z,1.87
2018-07-21T03:50:54.989Z,2.00
2018-07-21T03:53:23.159Z,1.90
2018-07-21T03:55:51.398Z,2.00
2018-07-21T03:58:19.537Z,1.82
2018-07-21T04:00:47.695Z,1.95
2018-07-21T04:03:15.853Z,1.90
2018-07-21T04:05:44.091Z,2.50
2018-07-21T04:08:12.321Z,1.75
2018-07-21T04:10:40.700Z,1.90
2018-07-21T04:13:08.848Z,1.92
2018-07-21T04:15:37.239Z,1.77
2018-07-21T04:18:05.692Z,2.05
2018-07-21T04:20:33.969Z,2.30
2018-07-21T04:23:02.190Z,2.02
2018-07-21T04:25:30.347Z,2.00
2018-07-21T04:27:58.505Z,2.12
2018-07-21T04:30:26.695Z,1.77
2018-07-21T04:32:54.923Z,1.87
2018-07-21T04:35:23.157Z,2.10
2018-07-21T04:37:51.401Z,2.72
2018-07-21T04:40:19.604Z,2.10
2018-07-21T04:42:47.779Z,2.55
2018-07-21T04:45:15.989Z,2.08
2018-07-21T04:47:44.236Z,2.20
2018-07-21T04:50:12.503Z,2.08
2018-07-21T04:52:40.767Z,2.08
2018-07-21T04:55:08.989Z,2.12
2018-07-21T04:57:37.207Z,1.98
2018-07-21T05:00:05.994Z,1.87
2018-07-21T05:02:34.271Z,1.72
2018-07-21T05:05:02.501Z,1.85
2018-07-21T05:07:30.778Z,1.95
2018-07-21T05:09:58.954Z,1.85
2018-07-21T05:12:27.090Z,2.00
2018-07-21T05:14:55.272Z,2.10
2018-07-21T05:17:23.448Z,1.72
2018-07-21T05:19:51.607Z,2.30
2018-07-21T05:22:19.764Z,1.55
2018-07-21T05:24:47.992Z,1.67
2018-07-21T05:27:16.141Z,2.20
2018-07-21T05:29:44.586Z,1.60
2018-07-21T05:32:12.925Z,1.72
2018-07-21T05:34:41.113Z,1.75
2018-07-21T05:37:09.543Z,1.92
2018-07-21T05:39:37.764Z,1.77
2018-07-21T05:42:05.913Z,1.98
2018-07-21T05:44:34.097Z,1.55
2018-07-21T05:47:02.268Z,2.08
2018-07-21T05:49:30.556Z,1.80
2018-07-21T05:51:58.762Z,3.10
2018-07-21T05:54:27.112Z,2.10
2018-07-21T05:56:55.264Z,1.90
2018-07-21T05:59:23.391Z,1.67
2018-07-21T06:01:51.666Z,1.60
2018-07-21T06:04:19.902Z,1.80
2018-07-21T06:06:48.112Z,1.87
2018-07-21T06:09:16.299Z,1.52
2018-07-21T06:11:44.605Z,1.70
2018-07-21T06:14:12.823Z,1.60
2018-07-21T06:16:41.149Z,2.60
2018-07-21T06:19:09.374Z,1.90
2018-07-21T06:21:37.574Z,1.60
2018-07-21T06:24:05.863Z,1.95
2018-07-21T06:26:34.086Z,1.70
2018-07-21T06:29:02.394Z,1.85
2018-07-21T06:31:30.672Z,1.75
2018-07-21T06:33:58.917Z,2.05
2018-07-21T06:36:27.168Z,1.70
2018-07-21T06:38:55.405Z,1.70
2018-07-21T06:41:23.610Z,1.45
2018-07-21T06:43:51.897Z,1.67
2018-07-21T06:46:20.078Z,1.87
2018-07-21T06:48:48.266Z,1.80
2018-07-21T06:51:16.559Z,1.65
2018-07-21T06:53:44.846Z,1.37
2018-07-21T06:56:13.054Z,1.60
2018-07-21T06:58:41.232Z,1.35
2018-07-21T07:01:09.390Z,1.65
2018-07-21T07:03:37.729Z,1.80
2018-07-21T07:06:05.966Z,1.40
2018-07-21T07:08:34.114Z,1.85
2018-07-21T07:11:02.516Z,1.50
2018-07-21T07:13:30.691Z,1.87
2018-07-21T07:15:59.043Z,1.77
2018-07-21T07:18:27.234Z,1.40
2018-07-21T07:20:55.373Z,1.92
2018-07-21T07:23:23.714Z,1.77
2018-07-21T07:25:52.028Z,1.70
2018-07-21T07:28:20.338Z,1.60
2018-07-21T07:30:49.211Z,1.45
2018-07-21T07:33:17.396Z,1.85
2018-07-21T07:35:45.542Z,1.70
2018-07-21T07:38:13.692Z,2.50
2018-07-21T07:40:41.874Z,1.57
2018-07-21T07:43:10.005Z,1.95
2018-07-21T07:45:38.167Z,1.50
2018-07-21T07:48:06.344Z,2.02
2018-07-21T07:50:34.556Z,1.62
2018-07-21T07:53:02.880Z,1.92
2018-07-21T07:55:32.181Z,1.20
2018-07-21T07:58:01.368Z,1.30
2018-07-21T08:00:29.963Z,1.40
2018-07-21T08:02:58.677Z,1.32
2018-07-21T08:05:27.081Z,1.67
2018-07-21T08:07:55.259Z,1.40
2018-07-21T08:10:23.461Z,1.27
2018-07-21T08:12:52.276Z,1.25
2018-07-21T08:15:20.896Z,1.40
2018-07-21T08:17:49.412Z,1.30
2018-07-21T08:20:17.563Z,1.65
2018-07-21T08:22:45.714Z,1.35
2018-07-21T08:25:13.891Z,1.32
2018-07-21T08:27:42.029Z,1.32
2018-07-21T08:30:11.328Z,1.72
2018-07-21T08:32:39.943Z,1.50
2018-07-21T08:35:08.101Z,1.47
2018-07-21T08:37:37.222Z,1.17
2018-07-21T08:40:05.967Z,1.70
2018-07-21T08:42:34.100Z,1.40
2018-07-21T08:45:02.725Z,1.65
2018-07-21T08:47:31.003Z,1.40
2018-07-21T08:49:59.217Z,1.30
2018-07-21T08:52:27.587Z,1.32
2018-07-21T08:54:55.742Z,1.45
2018-07-21T08:57:23.973Z,1.35
2018-07-21T08:59:52.206Z,1.50
2018-07-21T09:02:20.480Z,1.40
2018-07-21T09:04:48.659Z,1.70
2018-07-21T09:07:16.978Z,1.40
2018-07-21T09:09:45.136Z,1.42
2018-07-21T09:12:13.518Z,1.52
2018-07-21T09:14:41.699Z,1.45
2018-07-21T09:17:09.878Z,1.30
2018-07-21T09:19:38.103Z,1.40
2018-07-21T09:22:06.331Z,1.67
2018-07-21T09:24:34.682Z,1.90
2018-07-21T09:27:02.856Z,1.37
2018-07-21T09:29:31.241Z,2.00
2018-07-21T09:31:59.382Z,1.30
2018-07-21T09:34:27.601Z,1.85
2018-07-21T09:36:55.900Z,1.70
2018-07-21T09:39:24.130Z,2.10
2018-07-21T09:41:52.315Z,1.62
2018-07-21T09:44:20.867Z,2.10
2018-07-21T09:46:49.171Z,1.70
2018-07-21T09:49:17.718Z,1.80
2018-07-21T09:51:45.899Z,1.62
2018-07-21T09:54:14.091Z,2.02
2018-07-21T09:56:42.341Z,1.87
2018-07-21T09:59:10.566Z,2.10
2018-07-21T10:01:38.800Z,2.05
2018-07-21T10:04:06.971Z,2.37
2018-07-21T10:06:35.174Z,2.47
2018-07-21T10:09:03.325Z,1.90
2018-07-21T10:11:31.538Z,2.12
2018-07-21T10:13:59.746Z,2.15
2018-07-21T10:16:27.874Z,2.35
2018-07-21T10:18:56.096Z,2.20
2018-07-21T10:21:24.325Z,1.85
2018-07-21T10:23:52.611Z,1.80
2018-07-21T10:26:26.020Z,2.02
2018-07-21T10:28:59.465Z,2.15
2018-07-21T10:31:27.627Z,2.10
2018-07-21T10:33:55.795Z,2.02
2018-07-21T10:36:24.090Z,2.02
2018-07-21T10:38:52.945Z,2.17
2018-07-21T10:41:21.162Z,2.15
2018-07-21T10:43:49.455Z,2.08
2018-07-21T10:46:17.626Z,1.90
2018-07-21T10:48:45.814Z,2.00
2018-07-21T10:51:13.998Z,1.98
2018-07-21T10:53:42.236Z,2.22
2018-07-21T10:56:10.548Z,2.12
2018-07-21T10:58:38.707Z,2.17
2018-07-21T11:01:07.421Z,2.83
2018-07-21T11:03:35.628Z,2.00
2018-07-21T11:06:03.799Z,2.00
2018-07-21T11:08:31.969Z,2.00
2018-07-21T11:11:00.135Z,2.30
2018-07-21T11:13:28.358Z,1.72
2018-07-21T11:15:56.822Z,2.05
2018-07-21T11:18:24.986Z,2.00
2018-07-21T11:20:53.169Z,2.45
2018-07-21T11:23:21.395Z,1.90
2018-07-21T11:25:49.587Z,2.40
2018-07-21T11:28:17.734Z,2.30
2018-07-21T11:30:46.025Z,1.98
2018-07-21T11:33:14.243Z,2.37
2018-07-21T11:35:42.577Z,2.22
2018-07-21T11:38:10.838Z,1.92
2018-07-21T11:40:39.140Z,1.80
2018-07-21T11:43:07.326Z,2.35
2018-07-21T11:45:35.488Z,1.98
2018-07-21T11:48:03.705Z,2.22
2018-07-21T11:50:31.941Z,2.33
2018-07-21T11:53:00.202Z,1.90
2018-07-21T11:55:28.457Z,2.40
2018-07-21T11:57:56.643Z,2.00
2018-07-21T12:00:25.014Z,2.08
2018-07-21T12:02:53.286Z,2.50
2018-07-21T12:05:21.558Z,2.20
2018-07-21T12:07:49.721Z,2.00
2018-07-21T12:10:17.881Z,2.70
2018-07-21T12:12:46.280Z,2.12
2018-07-21T12:15:14.535Z,2.35
2018-07-21T12:17:42.841Z,2.37
2018-07-21T12:20:11.105Z,2.10
2018-07-21T12:22:39.419Z,2.05
2018-07-21T12:25:07.537Z,2.10
2018-07-21T12:27:35.798Z,2.25
2018-07-21T12:30:04.215Z,2.27
2018-07-21T12:32:32.373Z,2.55
2018-07-21T12:35:00.505Z,2.02
2018-07-21T12:37:28.869Z,2.47
2018-07-21T12:39:57.104Z,2.27
2018-07-21T12:42:25.244Z,2.30
2018-07-21T12:44:53.455Z,2.27
2018-07-21T12:47:21.710Z,3.02
2018-07-21T12:49:49.907Z,2.12
2018-07-21T12:52:18.209Z,2.20
2018-07-21T12:54:46.483Z,2.22
2018-07-21T12:57:15.422Z,2.20
2018-07-21T12:59:43.668Z,2.27
2018-07-21T13:02:11.861Z,2.33
2018-07-21T13:04:40.029Z,2.22
2018-07-21T13:07:08.244Z,2.25
2018-07-21T13:09:37.004Z,2.60
2018-07-21T13:12:05.233Z,2.55
2018-07-21T13:14:33.404Z,2.10
2018-07-21T13:17:01.610Z,3.45
2018-07-21T13:19:29.766Z,2.10
2018-07-21T13:21:58.026Z,2.00
2018-07-21T13:24:26.185Z,2.67
2018-07-21T13:26:54.315Z,2.15
2018-07-21T13:29:22.583Z,2.05
2018-07-21T13:31:50.797Z,2.33
2018-07-21T13:34:19.004Z,2.10
2018-07-21T13:36:47.355Z,2.25
2018-07-21T13:39:15.505Z,2.35
2018-07-21T13:41:43.648Z,3.08
2018-07-21T13:44:11.827Z,2.33
2018-07-21T13:46:40.700Z,2.27
2018-07-21T13:49:08.879Z,2.45
2018-07-21T13:51:37.097Z,2.33
2018-07-21T13:54:05.389Z,2.27
2018-07-21T13:56:33.496Z,2.20
2018-07-21T13:59:01.725Z,2.58
2018-07-21T14:01:29.930Z,2.20
2018-07-21T14:03:58.223Z,2.72
2018-07-21T14:06:26.661Z,2.30
2018-07-21T14:08:54.829Z,2.45
2018-07-21T14:11:23.122Z,2.40
2018-07-21T14:13:51.369Z,3.15
2018-07-21T14:16:19.573Z,2.42
2018-07-21T14:18:47.769Z,2.72
2018-07-21T14:21:15.989Z,2.30
2018-07-21T14:23:44.202Z,2.25
2018-07-21T14:26:12.458Z,2.40
2018-07-21T14:28:40.774Z,2.10
2018-07-21T14:31:09.065Z,2.12
2018-07-21T14:33:37.290Z,2.25
2018-07-21T14:36:06.011Z,2.60
2018-07-21T14:38:34.929Z,2.45
2018-07-21T14:41:03.088Z,2.60
2018-07-21T14:43:31.276Z,2.33
2018-07-21T14:45:59.693Z,2.17
2018-07-21T14:48:27.842Z,2.40
2018-07-21T14:50:56.016Z,3.92
2018-07-21T14:53:24.201Z,2.77
2018-07-21T14:55:52.551Z,2.17
2018-07-21T14:58:20.793Z,2.45
2018-07-21T15:00:49.115Z,2.55
2018-07-21T15:03:17.304Z,2.67
2018-07-21T15:05:45.472Z,2.70
2018-07-21T15:08:13.630Z,2.27
2018-07-21T15:10:41.880Z,2.20
2018-07-21T15:13:10.121Z,2.40
2018-07-21T15:15:38.356Z,3.00
2018-07-21T15:18:06.666Z,2.40
2018-07-21T15:20:34.913Z,2.50
2018-07-21T15:23:03.180Z,2.47
2018-07-21T15:25:31.393Z,2.17
2018-07-21T15:27:59.541Z,2.20
2018-07-21T15:30:27.874Z,2.70
2018-07-21T15:32:56.097Z,2.72
2018-07-21T15:35:24.345Z,2.75
2018-07-21T15:37:52.602Z,2.80
2018-07-21T15:40:20.846Z,3.25
2018-07-21T15:42:49.124Z,2.67
2018-07-21T15:45:17.292Z,3.08
2018-07-21T15:47:45.561Z,2.80
2018-07-21T15:50:13.798Z,2.40
2018-07-21T15:52:42.044Z,2.72
2018-07-21T15:55:10.398Z,2.60
2018-07-21T15:57:38.628Z,2.35
2018-07-21T16:00:07.234Z,2.50
2018-07-21T16:02:35.414Z,2.45
2018-07-21T16:05:03.578Z,2.02
2018-07-21T16:07:31.819Z,2.87
2018-07-21T16:10:00.027Z,2.30
2018-07-21T16:12:28.177Z,2.42
2018-07-21T16:17:24.667Z,2.17
2018-07-21T16:19:52.893Z,2.60
2018-07-21T16:22:21.287Z,2.60
2018-07-21T16:24:49.427Z,2.52
2018-07-21T16:27:17.605Z,2.45
2018-07-21T16:29:45.758Z,2.85
2018-07-21T16:32:13.997Z,2.90
2018-07-21T16:34:42.962Z,2.47
2018-07-21T16:37:11.866Z,2.58
2018-07-21T16:39:40.778Z,2.40
2018-07-21T16:42:08.994Z,2.22
2018-07-21T16:44:37.209Z,2.02
2018-07-21T16:47:05.749Z,2.77
2018-07-21T16:49:33.988Z,2.58
2018-07-21T16:52:02.159Z,2.58
2018-07-21T16:54:30.447Z,2.40
2018-07-21T16:56:58.825Z,2.33
2018-07-21T16:59:26.973Z,2.47
2018-07-21T17:01:55.167Z,2.30
2018-07-21T17:04:23.292Z,2.40
2018-07-21T17:06:51.551Z,2.20
2018-07-21T17:09:19.763Z,2.47
2018-07-21T17:11:47.940Z,2.95
2018-07-21T17:14:16.133Z,2.60
2018-07-21T17:16:44.486Z,2.70
2018-07-21T17:19:12.661Z,2.33
2018-07-21T17:21:40.849Z,2.60
2018-07-21T17:24:09.260Z,2.00
2018-07-21T17:26:37.411Z,2.67
2018-07-21T17:29:05.608Z,2.80
2018-07-21T17:31:33.978Z,2.27
2018-07-21T17:34:02.198Z,2.37
2018-07-21T17:36:30.530Z,2.70
2018-07-21T17:38:58.841Z,2.70
2018-07-21T17:41:27.115Z,2.70
2018-07-21T17:43:55.275Z,2.77
2018-07-21T17:46:23.472Z,2.75
2018-07-21T17:48:51.615Z,2.72
2018-07-21T17:51:19.937Z,2.67
2018-07-21T17:53:48.143Z,2.70
2018-07-21T17:56:16.381Z,4.35
2018-07-21T17:58:44.736Z,2.50
2018-07-21T18:01:12.997Z,2.70
2018-07-21T18:03:41.432Z,2.47
2018-07-21T18:06:09.714Z,2.37
2018-07-21T18:08:37.905Z,2.83
2018-07-21T18:11:06.074Z,2.90
2018-07-21T18:13:34.216Z,2.67
2018-07-21T18:16:02.599Z,3.12
2018-07-21T18:18:30.777Z,3.00
2018-07-21T18:20:58.941Z,2.83
2018-07-21T18:23:27.302Z,2.70
2018-07-21T18:25:55.447Z,2.85
2018-07-21T18:28:23.600Z,3.08
2018-07-21T18:30:51.904Z,2.85
2018-07-21T18:33:20.086Z,3.00
2018-07-21T18:35:48.334Z,2.95
2018-07-21T18:38:16.505Z,2.50
2018-07-21T18:40:44.702Z,2.52
2018-07-21T18:43:12.847Z,3.08
2018-07-21T18:45:41.030Z,2.77
2018-07-21T18:48:09.178Z,2.65
2018-07-21T18:50:37.325Z,2.85
2018-07-21T18:53:05.961Z,2.70
2018-07-21T18:55:34.227Z,2.70
2018-07-21T18:58:02.485Z,2.55
2018-07-21T19:00:30.705Z,3.25
2018-07-21T19:02:58.870Z,2.55
2018-07-21T19:05:27.645Z,2.65
2018-07-21T19:07:56.493Z,2.25
2018-07-21T19:10:24.761Z,2.95
2018-07-21T19:12:53.045Z,3.50
2018-07-21T19:15:27.408Z,3.33
2018-07-21T19:17:55.595Z,2.50
2018-07-21T19:20:29.404Z,2.72
2018-07-21T19:22:57.989Z,2.85
2018-07-21T19:25:31.723Z,3.60
2018-07-21T19:28:00.076Z,3.05
2018-07-21T19:30:28.479Z,3.25
2018-07-21T19:32:59.865Z,2.80
2018-07-21T19:35:29.400Z,2.67
2018-07-21T19:37:58.168Z,2.90
2018-07-21T19:40:27.235Z,3.05
2018-07-21T19:42:56.090Z,3.12
2018-07-21T19:45:25.465Z,2.67
2018-07-21T19:47:54.091Z,2.65
2018-07-21T19:50:22.422Z,2.80
2018-07-21T19:52:50.883Z,2.92
2018-07-21T19:55:19.682Z,3.20
2018-07-21T19:57:48.207Z,2.67
2018-07-21T20:00:16.379Z,2.75
2018-07-21T20:02:44.846Z,2.60
2018-07-21T20:05:13.143Z,2.77
2018-07-21T20:07:41.898Z,3.00
2018-07-21T20:10:10.399Z,3.25
2018-07-21T20:12:38.575Z,3.65
2018-07-21T20:15:06.954Z,3.42
2018-07-21T20:17:35.307Z,2.90
2018-07-21T20:20:03.589Z,2.87
2018-07-21T20:22:31.745Z,3.30
2018-07-21T20:25:00.026Z,3.72
2018-07-21T20:27:28.226Z,2.75
2018-07-21T20:29:56.510Z,2.67
2018-07-21T20:32:24.755Z,2.87
2018-07-21T20:34:52.879Z,2.83
2018-07-21T20:37:21.041Z,3.00
2018-07-21T20:39:49.373Z,3.27
2018-07-21T20:42:17.517Z,3.05
2018-07-21T20:44:45.651Z,3.00
2018-07-21T20:47:14.633Z,2.90
2018-07-21T20:49:42.824Z,4.15
2018-07-21T20:52:11.074Z,2.92
2018-07-21T20:54:39.301Z,3.55
2018-07-21T20:57:08.355Z,3.00
2018-07-21T20:59:36.605Z,3.55
2018-07-21T21:02:05.867Z,2.80
2018-07-21T21:04:34.044Z,3.40
2018-07-21T21:07:02.238Z,3.40
2018-07-21T21:09:30.526Z,3.67
2018-07-21T21:11:58.740Z,3.87
2018-07-21T21:14:26.908Z,3.27
2018-07-21T21:16:55.114Z,3.30
2018-07-21T21:19:23.304Z,3.10
2018-07-21T21:21:51.492Z,3.08
2018-07-21T21:24:19.711Z,3.12
2018-07-21T21:26:48.227Z,3.12
2018-07-21T21:29:16.458Z,3.25
2018-07-21T21:31:44.670Z,3.40
2018-07-21T21:34:12.836Z,3.65
2018-07-21T21:36:41.004Z,3.98
2018-07-21T21:39:10.998Z,3.33
2018-07-21T21:41:39.262Z,3.02
2018-07-21T21:44:07.392Z,3.33
2018-07-21T21:46:35.613Z,3.30
2018-07-21T21:49:03.798Z,2.90
2018-07-21T21:51:31.961Z,3.17
2018-07-21T21:54:00.230Z,3.05
2018-07-21T21:56:28.594Z,3.52
2018-07-21T21:58:56.927Z,3.35
2018-07-21T22:01:25.184Z,3.20
2018-07-21T22:03:53.428Z,3.22
2018-07-21T22:06:22.274Z,3.17
2018-07-21T22:08:50.475Z,3.15
2018-07-21T22:11:18.672Z,3.25
2018-07-21T22:13:47.237Z,3.15
2018-07-21T22:16:15.429Z,3.22
2018-07-21T22:18:43.671Z,3.52
2018-07-21T22:21:12.004Z,3.55
2018-07-21T22:23:40.205Z,3.95
2018-07-21T22:26:08.370Z,3.22
2018-07-21T22:28:36.626Z,3.72
2018-07-21T22:31:04.914Z,3.47
2018-07-21T22:33:33.296Z,4.28
2018-07-21T22:36:01.572Z,3.40
2018-07-21T22:38:29.791Z,2.98
2018-07-21T22:40:57.924Z,2.83
2018-07-21T22:43:26.116Z,3.35
2018-07-21T22:45:54.388Z,3.60
2018-07-21T22:48:22.671Z,3.22
2018-07-21T22:50:50.906Z,2.52
2018-07-21T22:53:19.189Z,3.17
2018-07-21T22:55:47.340Z,2.90
2018-07-21T22:58:15.497Z,2.33
2018-07-21T23:00:43.807Z,2.95
2018-07-21T23:03:12.404Z,2.90
2018-07-21T23:05:40.560Z,2.98
2018-07-21T23:08:08.798Z,2.87
2018-07-21T23:10:36.956Z,3.00
2018-07-21T23:13:05.239Z,3.45
2018-07-21T23:15:33.423Z,2.85
2018-07-21T23:18:01.586Z,2.85
2018-07-21T23:20:29.811Z,3.00
2018-07-21T23:22:58.109Z,3.22
2018-07-21T23:25:26.255Z,2.92
2018-07-21T23:27:54.491Z,3.12
2018-07-21T23:30:22.789Z,3.17
2018-07-21T23:32:51.032Z,2.80
2018-07-21T23:35:19.256Z,2.98
2018-07-21T23:37:48.607Z,2.98
2018-07-21T23:40:16.783Z,3.15
2018-07-21T23:42:44.989Z,3.17
2018-07-21T23:45:13.235Z,3.25
2018-07-21T23:47:41.480Z,2.83
2018-07-21T23:50:09.808Z,3.50
2018-07-21T23:52:38.020Z,2.90
2018-07-21T23:55:07.464Z,3.00
2018-07-21T23:57:35.664Z,3.67
